createdAt,value
2022-09-29T00:01:07.774Z,99047.59
2022-09-29T00:03:50.080Z,99049.90
2022-09-29T00:06:32.387Z,99052.55
2022-09-29T00:09:14.076Z,99055.40
2022-09-29T00:11:56.688Z,99050.96
2022-09-29T00:14:38.482Z,99053.31
2022-09-29T00:17:20.275Z,99054.53
2022-09-29T00:20:01.965Z,99055.04
2022-09-29T00:22:43.659Z,99050.80
2022-09-29T00:25:25.374Z,99050.44
2022-09-29T00:28:07.142Z,99053.77
2022-09-29T00:30:48.831Z,99054.58
2022-09-29T00:33:35.853Z,99055.02
2022-09-29T00:36:19.995Z,99053.98
2022-09-29T00:39:01.686Z,99052.11
2022-09-29T00:41:43.582Z,99050.00
2022-09-29T00:44:25.170Z,99051.16
2022-09-29T00:47:07.066Z,99053.80
2022-09-29T00:49:59.147Z,99055.80
2022-09-29T00:52:46.935Z,99061.75
2022-09-29T00:55:34.880Z,99059.67
2022-09-29T00:58:39.911Z,99060.20
2022-09-29T01:01:23.540Z,99060.80
2022-09-29T01:04:11.799Z,99063.52
2022-09-29T01:06:57.476Z,99065.91
2022-09-29T01:09:42.869Z,99064.09
2022-09-29T01:12:24.751Z,99066.60
2022-09-29T01:15:07.360Z,99065.18
2022-09-29T01:17:49.871Z,99068.96
2022-09-29T01:20:38.083Z,99071.45
2022-09-29T01:23:33.733Z,99069.64
2022-09-29T01:26:40.018Z,99070.83
2022-09-29T01:29:24.681Z,99077.11
2022-09-29T01:32:24.071Z,99076.42
2022-09-29T01:35:20.094Z,99075.50
2022-09-29T01:38:36.089Z,99074.48
2022-09-29T01:41:33.652Z,99074.29
2022-09-29T01:44:27.631Z,99077.36
2022-09-29T01:47:28.375Z,99074.14
2022-09-29T01:50:21.735Z,99076.36
2022-09-29T01:53:09.281Z,99079.77
2022-09-29T01:55:56.380Z,99085.23
2022-09-29T01:58:54.456Z,99088.13
2022-09-29T02:01:42.139Z,99092.23
2022-09-29T02:04:29.612Z,99095.86
2022-09-29T02:07:21.138Z,99099.46
2022-09-29T02:10:11.120Z,99100.49
2022-09-29T02:12:54.448Z,99103.93
2022-09-29T02:15:40.644Z,99105.35
2022-09-29T02:18:24.512Z,99106.27
2022-09-29T02:21:06.387Z,99107.29
2022-09-29T02:23:48.788Z,99108.80
2022-09-29T02:26:37.546Z,99113.35
2022-09-29T02:29:19.954Z,99112.00
2022-09-29T02:32:06.254Z,99118.20
2022-09-29T02:34:52.350Z,99119.82
2022-09-29T02:37:56.772Z,99122.12
2022-09-29T02:40:51.526Z,99120.73
2022-09-29T02:43:49.916Z,99126.54
2022-09-29T02:46:46.097Z,99123.14
2022-09-29T02:49:33.417Z,99122.69
2022-09-29T02:52:31.990Z,99125.32
2022-09-29T02:55:21.054Z,99129.34
2022-09-29T02:58:18.821Z,99129.34
2022-09-29T03:01:01.004Z,99129.49
2022-09-29T03:03:43.456Z,99128.97
2022-09-29T03:06:25.431Z,99124.64
2022-09-29T03:09:07.122Z,99130.80
2022-09-29T03:11:48.813Z,99128.14
2022-09-29T03:14:30.504Z,99125.85
2022-09-29T03:17:12.401Z,99125.09
2022-09-29T03:19:54.010Z,99129.02
2022-09-29T03:22:35.780Z,99128.16
2022-09-29T03:25:17.676Z,99134.17
2022-09-29T03:27:59.369Z,99138.63
2022-09-29T03:30:40.956Z,99140.96
2022-09-29T03:33:22.751Z,99140.61
2022-09-29T03:36:06.181Z,99147.59
2022-09-29T03:38:47.876Z,99145.79
2022-09-29T03:41:29.493Z,99148.53
2022-09-29T03:44:11.152Z,99155.82
2022-09-29T03:46:52.944Z,99156.28
2022-09-29T03:49:35.863Z,99158.06
2022-09-29T03:52:17.554Z,99155.27
2022-09-29T03:54:59.247Z,99157.98
2022-09-29T03:57:40.937Z,99159.63
2022-09-29T04:00:22.628Z,99159.23
2022-09-29T04:03:04.628Z,99161.44
2022-09-29T04:05:47.648Z,99165.67
2022-09-29T04:08:29.749Z,99171.50
2022-09-29T04:11:11.444Z,99178.55
2022-09-29T04:13:54.768Z,99177.83
2022-09-29T04:16:36.520Z,99182.05
2022-09-29T04:19:18.495Z,99187.18
2022-09-29T04:22:00.353Z,99193.10
2022-09-29T04:24:42.044Z,99196.96
2022-09-29T04:27:23.735Z,99201.16
2022-09-29T04:30:06.890Z,99203.40
2022-09-29T04:32:49.276Z,99204.20
2022-09-29T04:35:36.092Z,99209.80
2022-09-29T04:38:18.588Z,99211.22
2022-09-29T04:41:02.058Z,99212.64
2022-09-29T04:43:44.387Z,99216.05
2022-09-29T04:46:26.016Z,99216.60
2022-09-29T04:49:07.914Z,99218.79
2022-09-29T04:51:49.606Z,99224.64
2022-09-29T04:54:37.880Z,99223.23
2022-09-29T04:57:19.895Z,99224.79
2022-09-29T05:00:02.048Z,99227.58
2022-09-29T05:02:48.885Z,99228.56
2022-09-29T05:05:31.472Z,99230.91
2022-09-29T05:08:13.163Z,99240.29
2022-09-29T05:10:54.854Z,99240.54
2022-09-29T05:13:37.467Z,99241.15
2022-09-29T05:16:19.434Z,99243.16
2022-09-29T05:19:01.564Z,99244.35
2022-09-29T05:21:43.256Z,99244.17
2022-09-29T05:24:25.868Z,99243.45
2022-09-29T05:27:07.768Z,99248.58
2022-09-29T05:29:50.069Z,99251.21
2022-09-29T05:32:32.169Z,99253.66
2022-09-29T05:35:13.964Z,99251.80
2022-09-29T05:37:55.598Z,99253.55
2022-09-29T05:40:37.601Z,99255.49
2022-09-29T05:43:22.516Z,99259.64
2022-09-29T05:46:06.704Z,99259.22
2022-09-29T05:48:51.535Z,99256.88
2022-09-29T05:51:33.324Z,99258.73
2022-09-29T05:54:15.014Z,99261.24
2022-09-29T05:56:56.809Z,99258.64
2022-09-29T05:59:38.710Z,99256.67
2022-09-29T06:02:20.420Z,99257.61
2022-09-29T06:05:02.190Z,99257.25
2022-09-29T06:07:43.879Z,99253.90
2022-09-29T06:10:25.475Z,99252.06
2022-09-29T06:13:07.774Z,99248.21
2022-09-29T06:15:49.465Z,99253.36
2022-09-29T06:18:31.667Z,99254.70
2022-09-29T06:21:18.990Z,99257.62
2022-09-29T06:24:01.397Z,99258.02
2022-09-29T06:26:43.190Z,99259.89
2022-09-29T06:29:25.000Z,99259.55
2022-09-29T06:32:06.814Z,99258.48
2022-09-29T06:35:08.029Z,99264.52
2022-09-29T06:37:50.638Z,99265.58
2022-09-29T06:40:32.371Z,99270.77
2022-09-29T06:43:14.226Z,99272.71
2022-09-29T06:45:55.967Z,99274.44
2022-09-29T06:48:37.914Z,99276.42
2022-09-29T06:51:22.781Z,99278.95
2022-09-29T06:54:11.340Z,99286.77
2022-09-29T06:56:55.711Z,99288.58
2022-09-29T06:59:42.503Z,99289.91
2022-09-29T07:02:25.040Z,99292.69
2022-09-29T07:05:06.902Z,99293.27
2022-09-29T07:07:52.205Z,99292.98
2022-09-29T07:10:35.917Z,99289.50
2022-09-29T07:13:17.607Z,99292.45
2022-09-29T07:16:12.175Z,99293.92
2022-09-29T07:18:53.993Z,99299.16
2022-09-29T07:21:35.685Z,99303.23
2022-09-29T07:24:17.887Z,99303.79
2022-09-29T07:27:00.125Z,99307.23
2022-09-29T07:29:41.955Z,99313.04
2022-09-29T07:32:28.307Z,99310.96
2022-09-29T07:35:10.384Z,99316.05
2022-09-29T07:37:55.203Z,99313.48
2022-09-29T07:40:38.210Z,99315.84
2022-09-29T07:43:20.213Z,99316.54
2022-09-29T07:46:02.972Z,99321.33
2022-09-29T07:48:44.781Z,99321.63
2022-09-29T07:51:26.782Z,99323.27
2022-09-29T07:54:08.672Z,99324.97
2022-09-29T07:56:50.371Z,99330.34
2022-09-29T07:59:32.159Z,99328.10
2022-09-29T08:02:13.880Z,99331.55
2022-09-29T08:05:00.660Z,99336.36
2022-09-29T08:07:44.089Z,99335.31
2022-09-29T08:10:27.316Z,99338.50
2022-09-29T08:13:09.419Z,99342.11
2022-09-29T08:15:58.215Z,99341.92
2022-09-29T08:18:40.377Z,99339.38
2022-09-29T08:21:22.855Z,99339.27
2022-09-29T08:24:06.012Z,99343.07
2022-09-29T08:26:48.214Z,99345.42
2022-09-29T08:29:42.834Z,99345.52
2022-09-29T08:32:28.287Z,99350.48
2022-09-29T08:35:09.980Z,99352.38
2022-09-29T08:37:55.217Z,99353.24
2022-09-29T08:40:36.927Z,99357.55
2022-09-29T08:43:48.163Z,99360.84
2022-09-29T08:46:39.704Z,99361.83
2022-09-29T08:49:33.337Z,99367.46
2022-09-29T08:52:46.530Z,99371.67
2022-09-29T08:55:46.878Z,99375.06
2022-09-29T08:58:28.978Z,99373.01
2022-09-29T09:01:28.221Z,99373.92
2022-09-29T09:04:12.839Z,99374.32
2022-09-29T09:07:00.470Z,99379.73
2022-09-29T09:10:10.936Z,99380.52
2022-09-29T09:13:13.312Z,99381.50
2022-09-29T09:16:19.000Z,99382.46
2022-09-29T09:19:29.330Z,99387.30
2022-09-29T09:22:25.481Z,99387.52
2022-09-29T09:25:28.141Z,99391.08
2022-09-29T09:28:22.835Z,99398.13
2022-09-29T09:31:33.711Z,99398.05
2022-09-29T09:34:44.894Z,99393.30
2022-09-29T09:37:33.347Z,99392.89
2022-09-29T09:40:20.631Z,99391.78
2022-09-29T09:43:18.750Z,99392.36
2022-09-29T09:46:34.615Z,99392.36
2022-09-29T09:49:26.322Z,99392.17
2022-09-29T09:52:45.018Z,99394.55
2022-09-29T09:55:27.529Z,99388.81
2022-09-29T09:58:34.409Z,99396.77
2022-09-29T10:01:16.166Z,99404.95
2022-09-29T10:04:00.145Z,99408.45
2022-09-29T10:06:42.655Z,99411.08
2022-09-29T10:09:24.375Z,99407.26
2022-09-29T10:12:06.244Z,99404.96
2022-09-29T10:14:53.977Z,99410.75
2022-09-29T10:17:42.539Z,99414.73
2022-09-29T10:20:36.677Z,99418.91
2022-09-29T10:23:29.143Z,99419.91
2022-09-29T10:26:21.056Z,99423.82
2022-09-29T10:29:18.283Z,99425.11
2022-09-29T10:32:10.479Z,99429.39
2022-09-29T10:35:02.306Z,99428.09
2022-09-29T10:37:48.299Z,99425.11
2022-09-29T10:40:30.089Z,99425.83
2022-09-29T10:43:25.207Z,99427.23
2022-09-29T10:47:14.157Z,99428.66
2022-09-29T10:50:37.763Z,99431.22
2022-09-29T10:53:25.796Z,99436.58
2022-09-29T10:56:17.426Z,99437.00
2022-09-29T10:59:05.648Z,99441.76
2022-09-29T11:01:57.270Z,99447.15
2022-09-29T11:04:41.179Z,99449.02
2022-09-29T11:07:23.003Z,99447.06
2022-09-29T11:10:05.617Z,99448.45
2022-09-29T11:12:49.354Z,99456.51
2022-09-29T11:15:40.850Z,99459.13
2022-09-29T11:18:34.344Z,99459.73
2022-09-29T11:21:21.872Z,99465.29
2022-09-29T11:24:20.971Z,99467.63
2022-09-29T11:27:18.536Z,99471.27
2022-09-29T11:30:20.671Z,99469.05
2022-09-29T11:33:21.111Z,99468.64
2022-09-29T11:36:27.722Z,99466.52
2022-09-29T11:39:28.344Z,99460.23
2022-09-29T11:42:34.999Z,99467.31
2022-09-29T11:45:24.954Z,99467.95
2022-09-29T11:48:34.448Z,99466.27
2022-09-29T11:51:28.667Z,99469.73
2022-09-29T11:54:31.336Z,99470.09
2022-09-29T11:57:49.395Z,99472.75
2022-09-29T12:00:31.970Z,99465.53
2022-09-29T12:03:37.642Z,99466.09
2022-09-29T12:06:44.097Z,99469.64
2022-09-29T12:09:41.130Z,99471.99
2022-09-29T12:15:49.689Z,99471.20
2022-09-29T12:18:43.051Z,99473.39
2022-09-29T12:21:33.549Z,99469.84
2022-09-29T12:24:20.543Z,99468.50
2022-09-29T12:27:12.700Z,99472.77
2022-09-29T12:30:05.288Z,99474.34
2022-09-29T12:32:57.815Z,99477.29
2022-09-29T12:35:53.203Z,99474.85
2022-09-29T12:38:42.337Z,99480.69
2022-09-29T12:41:29.489Z,99482.48
2022-09-29T12:44:16.779Z,99487.21
2022-09-29T12:47:12.839Z,99488.09
2022-09-29T12:50:17.031Z,99488.85
2022-09-29T12:53:09.306Z,99493.55
2022-09-29T12:56:15.194Z,99492.35
2022-09-29T12:59:04.011Z,99494.14
2022-09-29T13:01:50.925Z,99495.04
2022-09-29T13:05:02.825Z,99493.75
2022-09-29T13:07:54.655Z,99488.61
2022-09-29T13:11:11.672Z,99492.19
2022-09-29T13:14:23.776Z,99494.69
2022-09-29T13:17:21.134Z,99494.73
2022-09-29T13:20:28.899Z,99495.91
2022-09-29T13:23:25.682Z,99495.39
2022-09-29T13:26:31.232Z,99492.87
2022-09-29T13:29:32.685Z,99493.84
2022-09-29T13:32:16.119Z,99494.79
2022-09-29T13:35:01.243Z,99492.31
2022-09-29T13:37:54.019Z,99489.57
2022-09-29T13:40:35.733Z,99491.04
2022-09-29T13:43:37.699Z,99491.34
2022-09-29T13:46:31.785Z,99494.57
2022-09-29T13:49:23.920Z,99491.34
2022-09-29T13:52:11.908Z,99494.73
2022-09-29T13:54:53.555Z,99497.68
2022-09-29T13:57:35.542Z,99496.66
2022-09-29T14:00:19.177Z,99505.64
2022-09-29T14:03:04.249Z,99505.05
2022-09-29T14:05:47.602Z,99510.20
2022-09-29T14:08:35.242Z,99511.63
2022-09-29T14:11:40.919Z,99516.23
2022-09-29T14:14:27.028Z,99514.06
2022-09-29T14:17:17.450Z,99514.64
2022-09-29T14:20:15.016Z,99517.14
2022-09-29T14:23:02.473Z,99523.34
2022-09-29T14:25:44.131Z,99519.53
2022-09-29T14:28:35.064Z,99523.67
2022-09-29T14:31:24.724Z,99529.37
2022-09-29T14:34:13.496Z,99534.98
2022-09-29T14:37:07.259Z,99531.14
2022-09-29T14:40:09.826Z,99535.61
2022-09-29T14:43:06.570Z,99531.36
2022-09-29T14:46:13.106Z,99537.73
2022-09-29T14:49:55.661Z,99541.23
2022-09-29T14:52:56.246Z,99541.61
2022-09-29T14:55:54.783Z,99546.15
2022-09-29T14:59:18.894Z,99547.45
2022-09-29T15:02:21.067Z,99552.84
2022-09-29T15:05:29.993Z,99552.13
2022-09-29T15:08:36.745Z,99556.23
2022-09-29T15:11:26.992Z,99556.23
2022-09-29T15:14:20.809Z,99559.65
2022-09-29T15:17:21.491Z,99568.36
2022-09-29T15:20:11.538Z,99572.48
2022-09-29T15:23:08.693Z,99571.42
2022-09-29T15:25:55.865Z,99572.79
2022-09-29T15:28:39.548Z,99575.33
2022-09-29T15:31:29.591Z,99573.16
2022-09-29T15:34:20.526Z,99572.75
2022-09-29T15:37:05.675Z,99578.30
2022-09-29T15:39:51.585Z,99584.96
2022-09-29T15:42:37.619Z,99580.46
2022-09-29T15:45:27.776Z,99581.15
2022-09-29T15:48:14.778Z,99580.66
2022-09-29T15:50:58.758Z,99588.48
2022-09-29T15:53:41.010Z,99593.14
2022-09-29T15:56:24.719Z,99593.36
2022-09-29T15:59:18.357Z,99599.58
2022-09-29T16:02:05.946Z,99598.58
2022-09-29T16:04:51.671Z,99601.55
2022-09-29T16:07:39.100Z,99608.61
2022-09-29T16:10:23.245Z,99609.09
2022-09-29T16:13:11.369Z,99613.27
2022-09-29T16:16:01.359Z,99618.83
2022-09-29T16:18:49.158Z,99618.14
2022-09-29T16:21:38.614Z,99615.94
2022-09-29T16:24:21.210Z,99621.70
2022-09-29T16:27:04.252Z,99620.36
2022-09-29T16:29:46.952Z,99622.39
2022-09-29T16:32:42.056Z,99621.54
2022-09-29T16:35:49.230Z,99624.21
2022-09-29T16:38:44.347Z,99628.45
2022-09-29T16:42:05.653Z,99629.79
2022-09-29T16:44:52.056Z,99633.63
2022-09-29T16:47:36.300Z,99633.88
2022-09-29T16:50:20.141Z,99633.41
2022-09-29T16:53:01.934Z,99640.36
2022-09-29T16:55:59.809Z,99644.92
2022-09-29T16:58:41.700Z,99644.65
2022-09-29T17:01:26.071Z,99647.61
2022-09-29T17:04:10.614Z,99651.33
2022-09-29T17:06:52.509Z,99654.70
2022-09-29T17:09:34.874Z,99662.35
2022-09-29T17:12:17.754Z,99667.13
2022-09-29T17:14:59.887Z,99676.14
2022-09-29T17:17:43.736Z,99681.48
2022-09-29T17:20:30.178Z,99681.84
2022-09-29T17:23:12.556Z,99683.28
2022-09-29T17:26:14.450Z,99683.05
2022-09-29T17:28:56.140Z,99684.03
2022-09-29T17:31:38.036Z,99690.54
2022-09-29T17:34:25.621Z,99692.87
2022-09-29T17:37:11.421Z,99696.13
2022-09-29T17:39:54.073Z,99697.29
2022-09-29T17:42:35.726Z,99702.01
2022-09-29T17:45:19.808Z,99706.05
2022-09-29T17:48:02.932Z,99718.49
2022-09-29T17:50:50.922Z,99722.09
2022-09-29T17:53:32.590Z,99716.14
2022-09-29T17:56:22.501Z,99719.07
2022-09-29T17:59:06.091Z,99722.73
2022-09-29T18:01:51.054Z,99720.91
2022-09-29T18:04:35.294Z,99723.86
2022-09-29T18:07:17.202Z,99725.81
2022-09-29T18:09:59.392Z,99723.58
2022-09-29T18:12:41.083Z,99725.05
2022-09-29T18:15:23.701Z,99731.45
2022-09-29T18:18:07.743Z,99728.16
2022-09-29T18:20:50.836Z,99731.73
2022-09-29T18:23:32.557Z,99734.92
2022-09-29T18:26:15.579Z,99737.73
2022-09-29T18:28:58.806Z,99737.65
2022-09-29T18:31:40.624Z,99736.84
2022-09-29T18:34:30.030Z,99738.13
2022-09-29T18:37:17.623Z,99739.86
2022-09-29T18:40:00.756Z,99743.62
2022-09-29T18:42:45.875Z,99751.14
2022-09-29T18:45:31.402Z,99757.30
2022-09-29T18:48:16.037Z,99759.35
2022-09-29T18:50:57.934Z,99763.02
2022-09-29T18:53:42.221Z,99761.79
2022-09-29T18:56:24.797Z,99768.20
2022-09-29T18:59:10.236Z,99772.26
2022-09-29T19:01:52.415Z,99774.99
2022-09-29T19:04:34.785Z,99774.66
2022-09-29T19:07:16.885Z,99772.47
2022-09-29T19:09:58.576Z,99773.52
2022-09-29T19:12:45.497Z,99774.36
2022-09-29T19:15:32.993Z,99773.41
2022-09-29T19:18:23.903Z,99779.60
2022-09-29T19:21:13.338Z,99784.08
2022-09-29T19:23:58.029Z,99784.34
2022-09-29T19:26:40.935Z,99788.30
2022-09-29T19:29:23.514Z,99794.67
2022-09-29T19:32:06.989Z,99792.41
2022-09-29T19:34:51.303Z,99785.19
2022-09-29T19:37:35.601Z,99783.27
2022-09-29T19:40:22.854Z,99782.52
2022-09-29T19:43:05.897Z,99784.89
2022-09-29T19:45:47.867Z,99789.42
2022-09-29T19:48:29.502Z,99790.27
2022-09-29T19:51:33.572Z,99793.57
2022-09-29T19:54:20.449Z,99797.89
2022-09-29T19:57:08.064Z,99801.67
2022-09-29T19:59:49.808Z,99798.90
2022-09-29T20:02:31.565Z,99801.44
2022-09-29T20:05:14.885Z,99807.13
2022-09-29T20:07:56.929Z,99811.23
2022-09-29T20:10:41.898Z,99817.02
2022-09-29T20:13:24.303Z,99817.23
2022-09-29T20:16:08.511Z,99816.76
2022-09-29T20:18:50.858Z,99823.40
2022-09-29T20:21:35.245Z,99821.23
2022-09-29T20:24:20.258Z,99822.68
2022-09-29T20:27:03.407Z,99820.99
2022-09-29T20:29:45.200Z,99824.58
2022-09-29T20:32:28.735Z,99830.25
2022-09-29T20:35:10.425Z,99835.91
2022-09-29T20:37:52.115Z,99837.72
2022-09-29T20:40:33.807Z,99840.55
2022-09-29T20:43:15.497Z,99845.06
2022-09-29T20:46:05.154Z,99849.23
2022-09-29T20:48:52.047Z,99845.56
2022-09-29T20:51:37.880Z,99846.74
2022-09-29T20:54:20.987Z,99850.39
2022-09-29T20:57:03.819Z,99850.31
2022-09-29T20:59:45.517Z,99850.33
2022-09-29T21:02:27.480Z,99852.38
2022-09-29T21:05:09.300Z,99850.52
2022-09-29T21:07:50.992Z,99851.33
2022-09-29T21:10:32.681Z,99848.09
2022-09-29T21:13:15.706Z,99853.68
2022-09-29T21:15:58.464Z,99856.69
2022-09-29T21:18:40.316Z,99857.00
2022-09-29T21:21:22.211Z,99860.21
2022-09-29T21:24:04.311Z,99864.35
2022-09-29T21:26:46.923Z,99868.69
2022-09-29T21:29:28.821Z,99871.23
2022-09-29T21:32:10.644Z,99873.20
2022-09-29T21:34:52.303Z,99875.72
2022-09-29T21:37:34.404Z,99876.39
2022-09-29T21:40:16.096Z,99881.60
2022-09-29T21:42:57.786Z,99889.84
2022-09-29T21:45:39.477Z,99889.48
2022-09-29T21:48:21.678Z,99890.47
2022-09-29T21:51:07.571Z,99892.52
2022-09-29T21:53:49.367Z,99893.67
2022-09-29T21:56:35.354Z,99899.43
2022-09-29T21:59:19.309Z,99902.02
2022-09-29T22:02:01.075Z,99905.30
2022-09-29T22:04:42.884Z,99903.98
2022-09-29T22:07:24.676Z,99905.28
2022-09-29T22:10:06.982Z,99905.32
2022-09-29T22:12:48.606Z,99902.42
2022-09-29T22:15:33.438Z,99900.11
2022-09-29T22:18:15.126Z,99901.41
2022-09-29T22:21:01.630Z,99901.65
2022-09-29T22:23:44.448Z,99900.36
2022-09-29T22:26:26.650Z,99905.97
2022-09-29T22:29:08.344Z,99912.66
2022-09-29T22:31:50.269Z,99927.06
2022-09-29T22:34:32.032Z,99934.85
2022-09-29T22:37:13.823Z,99943.91
2022-09-29T22:39:55.516Z,99948.29
2022-09-29T22:42:37.513Z,99955.20
2022-09-29T22:45:19.206Z,99950.62
2022-09-29T22:48:01.101Z,99951.56
2022-09-29T22:50:45.585Z,99955.19
2022-09-29T22:53:27.247Z,99957.60
2022-09-29T22:56:17.027Z,99959.02
2022-09-29T22:59:01.573Z,99959.48
2022-09-29T23:01:43.565Z,99961.44
2022-09-29T23:04:25.662Z,99968.13
2022-09-29T23:07:08.706Z,99969.74
2022-09-29T23:09:50.490Z,99973.54
2022-09-29T23:12:32.497Z,99973.44
2022-09-29T23:15:14.189Z,99975.46
2022-09-29T23:17:55.879Z,99977.65
2022-09-29T23:20:37.570Z,99968.71
2022-09-29T23:23:19.262Z,99960.59
2022-09-29T23:26:00.951Z,99961.64
2022-09-29T23:28:43.052Z,99965.25
2022-09-29T23:31:25.208Z,99966.98
2022-09-29T23:34:06.946Z,99972.31
2022-09-29T23:36:48.638Z,99976.48
2022-09-29T23:39:30.533Z,99978.16
2022-09-29T23:42:13.604Z,99972.12
2022-09-29T23:44:55.449Z,99972.95
2022-09-29T23:47:37.108Z,99967.11
2022-09-29T23:50:19.139Z,99964.83
2022-09-29T23:53:00.936Z,99963.08
2022-09-29T23:55:42.529Z,99963.03
2022-09-29T23:58:24.621Z,99960.73
